Atkins, Virginia
Current Conditions -  °F | °C
As of 2:35 AM on Friday 24 Oct 2014 (Local Time) from KMKJ Reporting Station
Clear Clear  
Wind Chill: 32°   Ceiling: Unl
Heat Index: 38°   Visibility: 7mi
Dew Point: 36°   Wind: 7mph
Humidity: 95%   Direction: 280°W
Pressure: 30.14"   Gusts: NA
Location:  36.87°N, 81.4°W
Report Text: KMKJ 240635Z AUTO 28006KT 7SM CLR 03/02 A3014 RMK AO2 T00310023
Loading
Personal Weather Stations






























Interactive Weather Map
Tropical Storm Tracking
New forecast layout! Learn more

10-Day Weather Forecast

Advertisements
Track Severe Weather on mobile